Terminal Aerodrome Forecast
Issued by NWS Wilmington, OH

Current Version | Previous Version | Graphics & Text | Print | Product List | Glossary On
Versions: 1 2 3 4 5 6 7 8 9 10 11 12 13 14 15 16 17 18 19 20
000
FTUS41 KILN 010900 AAA
TAFILN
TAF AMD
KILN 010953Z 0110/0206 34007KT P6SM BKN050
     FM011300 36012KT P6SM BKN050
     FM012300 36006KT P6SM SCT050
     FM020200 VRB03KT P6SM SCT045=

USA.gov is the U.S. government's official web portal to all federal, state and local government web resources and services.